To NAV CANADA Home Page Login to a new session Search on AWWS site Feedback and Comments Disclaimer Vers la page française équivalente Tips FAQ What's new on the site To the Forecasts and Observations / NOTAM section To "File a Flight Plan" website Publications and other links Update of the User's profile FIC Telephone Numbers My Weather Data Folder Route Weather Data Regional Weather Data Local Weather Data To the Forecasts and Observations / NOTAM section
Request Generated 07/04/2015 at 16:57:17 UTC . Weather information available at that time is displayed.

METAR/TAF

KELOWNA/BC    (show WxCam)

METAR CYLW 041600Z AUTO VRB02KT 9SM OVC002 25/06 A2988 RMK SLP109
DENSITY ALT 2900FT=
METAR CYLW 041500Z AUTO VRB02KT 9SM OVC002 23/08 A2989 RMK SLP109
DENSITY ALT 2600FT=
SPECI CYLW 041408Z AUTO VRB02KT 6SM HZ BKN002 20/09 A2988 RMK SLP108
DENSITY ALT 2300FT=
SPECI CYLW 041401Z AUTO 03002KT 5SM HZ FEW002 19/08 A2988 RMK SLP108
DENSITY ALT 2200FT=
METAR CYLW 041400Z AUTO 04002KT 6SM HZ FEW002 19/08 A2988 RMK SLP108
DENSITY ALT 2200FT=

TAF CYLW 041238Z 0413/0501 VRB03KT P6SM SKC
BECMG 0417/0419 35010KT
RMK FCST BASED ON AUTO OBS. NXT FCST BY 041900Z=
Your time UTC time
Weather data provided by Environment Canada and NAV CANADA